EGNS/IOM METAR and TAF weather

Enter ICAO airport designator
Station Type Date Time Source
EGNS METAR 2018/01/24 07:20 UTC NOAA

EGNS 240720Z 24030G41KT 210V270 9999 FEW035 08/03 Q0991 NOSIG


Station Type Date Time Source
EGNS Decoded METAR 2018/01/24 07:20 UTC NOAA

Isle Of Man / Ronaldsway Airport, United Kingdom (EGNS) 54-05N 004-38W 0M
Jan 24, 2018 - 02:20 AM EST / 2018.01.24 0720 UTC
Wind: from the WSW (240 degrees) at 35 MPH (30 KT) gusting to 47 MPH (41 KT) (direction variable):0
Visibility: greater than 7 mile(s):0
Sky conditions: mostly clear
Temperature: 46 F (8 C)
Dew Point: 37 F (3 C)
Relative Humidity: 70%
Pressure (altimeter): 29.26 in. Hg (0991 hPa)
ob: EGNS 240720Z 24030G41KT 210V270 9999 FEW035 08/03 Q0991 NOSIG
cycle: 7

Station Type Date Time Source
EGNS TAF 2017/03/09 09:27 UTC NOAA

TAF TAF EGNS 090800Z 0909/0921 29012KT 9999 SCT018


Example: see airport list